sensor_id;sensor_type;location;lat;lon;timestamp;P1;durP1;ratioP1;P2;durP2;ratioP2
37115;SDS011;23025;41.996;23.098;2023-03-14T00:01:07;1.60;;;1.50;;
37115;SDS011;23025;41.996;23.098;2023-03-14T00:03:33;2.30;;;2.17;;
37115;SDS011;23025;41.996;23.098;2023-03-14T00:06:01;0.63;;;0.63;;
37115;SDS011;23025;41.996;23.098;2023-03-14T00:08:28;0.88;;;0.88;;
37115;SDS011;23025;41.996;23.098;2023-03-14T00:10:54;1.05;;;1.05;;
37115;SDS011;23025;41.996;23.098;2023-03-14T00:13:22;1.00;;;1.00;;
37115;SDS011;23025;41.996;23.098;2023-03-14T00:15:50;0.55;;;0.55;;
37115;SDS011;23025;41.996;23.098;2023-03-14T00:18:17;2.28;;;2.13;;
37115;SDS011;23025;41.996;23.098;2023-03-14T00:20:44;1.83;;;1.73;;
37115;SDS011;23025;41.996;23.098;2023-03-14T00:23:11;1.20;;;1.15;;
37115;SDS011;23025;41.996;23.098;2023-03-14T00:25:37;2.33;;;2.17;;
37115;SDS011;23025;41.996;23.098;2023-03-14T00:28:04;1.35;;;1.25;;
37115;SDS011;23025;41.996;23.098;2023-03-14T00:30:30;2.67;;;2.13;;
37115;SDS011;23025;41.996;23.098;2023-03-14T00:32:58;1.50;;;1.40;;
37115;SDS011;23025;41.996;23.098;2023-03-14T00:35:25;0.60;;;0.60;;
37115;SDS011;23025;41.996;23.098;2023-03-14T00:37:51;1.38;;;1.38;;
37115;SDS011;23025;41.996;23.098;2023-03-14T00:40:18;2.30;;;2.20;;
37115;SDS011;23025;41.996;23.098;2023-03-14T00:42:44;2.47;;;1.92;;
37115;SDS011;23025;41.996;23.098;2023-03-14T00:45:11;2.15;;;1.95;;
37115;SDS011;23025;41.996;23.098;2023-03-14T00:47:37;2.25;;;2.08;;
37115;SDS011;23025;41.996;23.098;2023-03-14T00:50:06;1.10;;;1.10;;
37115;SDS011;23025;41.996;23.098;2023-03-14T00:52:32;1.17;;;1.02;;
37115;SDS011;23025;41.996;23.098;2023-03-14T00:54:59;0.88;;;0.88;;
37115;SDS011;23025;41.996;23.098;2023-03-14T00:57:25;1.63;;;1.52;;
37115;SDS011;23025;41.996;23.098;2023-03-14T00:59:52;1.40;;;0.93;;
37115;SDS011;23025;41.996;23.098;2023-03-14T01:02:18;1.35;;;1.25;;
37115;SDS011;23025;41.996;23.098;2023-03-14T01:04:46;1.63;;;1.52;;
37115;SDS011;23025;41.996;23.098;2023-03-14T01:07:14;1.08;;;1.02;;
37115;SDS011;23025;41.996;23.098;2023-03-14T01:09:41;1.55;;;1.35;;
37115;SDS011;23025;41.996;23.098;2023-03-14T01:12:07;0.98;;;0.98;;
37115;SDS011;23025;41.996;23.098;2023-03-14T01:14:34;2.97;;;2.00;;
37115;SDS011;23025;41.996;23.098;2023-03-14T01:17:01;1.75;;;1.65;;
37115;SDS011;23025;41.996;23.098;2023-03-14T01:19:27;2.08;;;1.98;;
37115;SDS011;23025;41.996;23.098;2023-03-14T01:21:54;1.52;;;1.42;;
37115;SDS011;23025;41.996;23.098;2023-03-14T01:24:21;1.70;;;1.60;;
37115;SDS011;23025;41.996;23.098;2023-03-14T01:26:48;1.70;;;1.60;;
37115;SDS011;23025;41.996;23.098;2023-03-14T01:29:14;1.13;;;1.05;;
37115;SDS011;23025;41.996;23.098;2023-03-14T01:31:41;1.17;;;1.17;;
37115;SDS011;23025;41.996;23.098;2023-03-14T01:34:07;1.65;;;1.55;;
37115;SDS011;23025;41.996;23.098;2023-03-14T01:36:34;0.82;;;0.82;;
37115;SDS011;23025;41.996;23.098;2023-03-14T01:39:00;1.05;;;1.05;;
37115;SDS011;23025;41.996;23.098;2023-03-14T01:41:29;2.58;;;2.47;;
37115;SDS011;23025;41.996;23.098;2023-03-14T01:43:55;1.45;;;1.35;;
37115;SDS011;23025;41.996;23.098;2023-03-14T01:46:23;0.60;;;0.60;;
37115;SDS011;23025;41.996;23.098;2023-03-14T01:48:52;1.75;;;1.65;;
37115;SDS011;23025;41.996;23.098;2023-03-14T01:51:22;2.70;;;2.58;;
37115;SDS011;23025;41.996;23.098;2023-03-14T01:53:50;2.50;;;2.30;;
37115;SDS011;23025;41.996;23.098;2023-03-14T01:56:17;1.25;;;1.15;;
37115;SDS011;23025;41.996;23.098;2023-03-14T01:58:46;4.68;;;4.47;;
37115;SDS011;23025;41.996;23.098;2023-03-14T02:01:14;0.50;;;0.50;;
37115;SDS011;23025;41.996;23.098;2023-03-14T02:03:44;6.43;;;1.52;;
37115;SDS011;23025;41.996;23.098;2023-03-14T02:06:11;0.82;;;0.82;;
37115;SDS011;23025;41.996;23.098;2023-03-14T02:08:37;1.58;;;1.48;;
37115;SDS011;23025;41.996;23.098;2023-03-14T02:11:05;1.33;;;1.10;;
37115;SDS011;23025;41.996;23.098;2023-03-14T02:13:33;0.85;;;0.85;;
37115;SDS011;23025;41.996;23.098;2023-03-14T02:16:01;1.10;;;1.10;;
37115;SDS011;23025;41.996;23.098;2023-03-14T02:18:28;1.10;;;0.77;;
37115;SDS011;23025;41.996;23.098;2023-03-14T02:20:55;1.70;;;1.60;;
37115;SDS011;23025;41.996;23.098;2023-03-14T02:23:26;2.70;;;2.50;;
37115;SDS011;23025;41.996;23.098;2023-03-14T02:25:56;1.83;;;1.73;;
37115;SDS011;23025;41.996;23.098;2023-03-14T02:28:25;1.38;;;0.93;;
37115;SDS011;23025;41.996;23.098;2023-03-14T02:30:51;0.50;;;0.50;;
37115;SDS011;23025;41.996;23.098;2023-03-14T02:33:19;1.38;;;1.27;;
37115;SDS011;23025;41.996;23.098;2023-03-14T02:35:46;2.50;;;2.30;;
37115;SDS011;23025;41.996;23.098;2023-03-14T02:38:15;4.60;;;1.17;;
37115;SDS011;23025;41.996;23.098;2023-03-14T02:40:43;1.33;;;1.27;;
37115;SDS011;23025;41.996;23.098;2023-03-14T02:43:10;0.88;;;0.88;;
37115;SDS011;23025;41.996;23.098;2023-03-14T02:45:39;1.13;;;1.08;;
37115;SDS011;23025;41.996;23.098;2023-03-14T02:48:07;2.28;;;2.17;;
37115;SDS011;23025;41.996;23.098;2023-03-14T02:50:35;0.82;;;0.82;;
37115;SDS011;23025;41.996;23.098;2023-03-14T02:53:01;3.60;;;1.52;;
37115;SDS011;23025;41.996;23.098;2023-03-14T02:55:28;0.60;;;0.60;;
37115;SDS011;23025;41.996;23.098;2023-03-14T02:57:54;0.50;;;0.50;;
37115;SDS011;23025;41.996;23.098;2023-03-14T03:00:21;1.55;;;1.45;;
37115;SDS011;23025;41.996;23.098;2023-03-14T03:02:49;1.42;;;1.33;;
37115;SDS011;23025;41.996;23.098;2023-03-14T03:05:15;1.92;;;1.83;;
37115;SDS011;23025;41.996;23.098;2023-03-14T03:07:42;1.27;;;1.17;;
37115;SDS011;23025;41.996;23.098;2023-03-14T03:10:09;0.85;;;0.85;;
37115;SDS011;23025;41.996;23.098;2023-03-14T03:12:35;0.63;;;0.63;;
37115;SDS011;23025;41.996;23.098;2023-03-14T03:15:02;1.52;;;1.35;;
37115;SDS011;23025;41.996;23.098;2023-03-14T03:17:28;0.93;;;0.82;;
37115;SDS011;23025;41.996;23.098;2023-03-14T03:19:56;1.13;;;1.13;;
37115;SDS011;23025;41.996;23.098;2023-03-14T03:22:23;1.17;;;1.17;;
37115;SDS011;23025;41.996;23.098;2023-03-14T03:24:49;1.40;;;0.85;;
37115;SDS011;23025;41.996;23.098;2023-03-14T03:27:16;0.80;;;0.80;;
37115;SDS011;23025;41.996;23.098;2023-03-14T03:29:42;2.20;;;2.10;;
37115;SDS011;23025;41.996;23.098;2023-03-14T03:32:09;0.82;;;0.75;;
37115;SDS011;23025;41.996;23.098;2023-03-14T03:34:35;1.40;;;1.10;;
37115;SDS011;23025;41.996;23.098;2023-03-14T03:37:03;0.88;;;0.88;;
37115;SDS011;23025;41.996;23.098;2023-03-14T03:39:29;1.38;;;1.10;;
37115;SDS011;23025;41.996;23.098;2023-03-14T03:41:56;1.13;;;1.02;;
37115;SDS011;23025;41.996;23.098;2023-03-14T03:44:22;2.15;;;1.00;;
37115;SDS011;23025;41.996;23.098;2023-03-14T03:46:49;1.33;;;1.25;;
37115;SDS011;23025;41.996;23.098;2023-03-14T03:49:15;0.68;;;0.68;;
37115;SDS011;23025;41.996;23.098;2023-03-14T03:51:42;1.23;;;1.17;;
37115;SDS011;23025;41.996;23.098;2023-03-14T03:54:09;0.28;;;0.28;;
37115;SDS011;23025;41.996;23.098;2023-03-14T03:56:36;1.50;;;1.40;;
37115;SDS011;23025;41.996;23.098;2023-03-14T03:59:02;0.82;;;0.82;;
37115;SDS011;23025;41.996;23.098;2023-03-14T04:01:29;1.45;;;1.35;;
37115;SDS011;23025;41.996;23.098;2023-03-14T04:03:55;4.00;;;3.80;;
37115;SDS011;23025;41.996;23.098;2023-03-14T04:06:22;0.85;;;0.85;;
37115;SDS011;23025;41.996;23.098;2023-03-14T04:08:48;0.75;;;0.75;;
37115;SDS011;23025;41.996;23.098;2023-03-14T04:11:16;1.08;;;1.05;;
37115;SDS011;23025;41.996;23.098;2023-03-14T04:13:43;1.00;;;1.00;;
37115;SDS011;23025;41.996;23.098;2023-03-14T04:16:11;0.45;;;0.43;;
37115;SDS011;23025;41.996;23.098;2023-03-14T04:18:39;0.50;;;0.43;;
37115;SDS011;23025;41.996;23.098;2023-03-14T04:21:06;2.80;;;1.45;;
37115;SDS011;23025;41.996;23.098;2023-03-14T04:23:32;1.17;;;1.10;;
37115;SDS011;23025;41.996;23.098;2023-03-14T04:25:59;2.28;;;2.08;;
37115;SDS011;23025;41.996;23.098;2023-03-14T04:28:27;0.98;;;0.98;;
37115;SDS011;23025;41.996;23.098;2023-03-14T04:30:53;1.52;;;1.27;;
37115;SDS011;23025;41.996;23.098;2023-03-14T04:33:20;2.10;;;2.00;;
37115;SDS011;23025;41.996;23.098;2023-03-14T04:35:46;1.42;;;1.33;;
37115;SDS011;23025;41.996;23.098;2023-03-14T04:38:15;1.33;;;0.70;;
37115;SDS011;23025;41.996;23.098;2023-03-14T04:40:42;1.23;;;1.08;;
37115;SDS011;23025;41.996;23.098;2023-03-14T04:43:10;0.98;;;0.98;;
37115;SDS011;23025;41.996;23.098;2023-03-14T04:45:39;0.88;;;0.88;;
37115;SDS011;23025;41.996;23.098;2023-03-14T04:48:07;1.90;;;1.80;;
37115;SDS011;23025;41.996;23.098;2023-03-14T04:50:33;0.95;;;0.95;;
37115;SDS011;23025;41.996;23.098;2023-03-14T04:53:00;1.33;;;1.23;;
37115;SDS011;23025;41.996;23.098;2023-03-14T04:55:26;0.88;;;0.88;;
37115;SDS011;23025;41.996;23.098;2023-03-14T04:57:53;0.90;;;0.90;;
37115;SDS011;23025;41.996;23.098;2023-03-14T05:00:19;3.17;;;1.30;;
37115;SDS011;23025;41.996;23.098;2023-03-14T05:02:47;1.02;;;0.93;;
37115;SDS011;23025;41.996;23.098;2023-03-14T05:05:13;0.63;;;0.60;;
37115;SDS011;23025;41.996;23.098;2023-03-14T05:07:40;1.33;;;1.30;;
37115;SDS011;23025;41.996;23.098;2023-03-14T05:10:07;0.93;;;0.93;;
37115;SDS011;23025;41.996;23.098;2023-03-14T05:12:33;0.50;;;0.50;;
37115;SDS011;23025;41.996;23.098;2023-03-14T05:15:00;1.10;;;1.10;;
37115;SDS011;23025;41.996;23.098;2023-03-14T05:17:26;1.38;;;1.38;;
37115;SDS011;23025;41.996;23.098;2023-03-14T05:19:54;0.70;;;0.70;;
37115;SDS011;23025;41.996;23.098;2023-03-14T05:22:21;0.55;;;0.55;;
37115;SDS011;23025;41.996;23.098;2023-03-14T05:24:47;0.68;;;0.68;;
37115;SDS011;23025;41.996;23.098;2023-03-14T05:27:14;1.30;;;0.82;;
37115;SDS011;23025;41.996;23.098;2023-03-14T05:29:40;4.53;;;0.90;;
37115;SDS011;23025;41.996;23.098;2023-03-14T05:32:07;1.00;;;1.00;;
37115;SDS011;23025;41.996;23.098;2023-03-14T05:34:33;1.75;;;1.63;;
37115;SDS011;23025;41.996;23.098;2023-03-14T05:37:01;2.47;;;2.28;;
37115;SDS011;23025;41.996;23.098;2023-03-14T05:39:28;1.52;;;1.42;;
37115;SDS011;23025;41.996;23.098;2023-03-14T05:41:54;2.17;;;1.98;;
37115;SDS011;23025;41.996;23.098;2023-03-14T05:44:21;2.28;;;2.17;;
37115;SDS011;23025;41.996;23.098;2023-03-14T05:46:47;0.43;;;0.38;;
37115;SDS011;23025;41.996;23.098;2023-03-14T05:49:14;1.60;;;1.20;;
37115;SDS011;23025;41.996;23.098;2023-03-14T05:51:40;2.40;;;2.30;;
37115;SDS011;23025;41.996;23.098;2023-03-14T05:54:08;1.33;;;1.23;;
37115;SDS011;23025;41.996;23.098;2023-03-14T05:56:35;0.93;;;0.85;;
37115;SDS011;23025;41.996;23.098;2023-03-14T05:59:01;1.10;;;1.08;;
37115;SDS011;23025;41.996;23.098;2023-03-14T06:01:28;1.25;;;1.08;;
37115;SDS011;23025;41.996;23.098;2023-03-14T06:03:55;0.88;;;0.88;;
37115;SDS011;23025;41.996;23.098;2023-03-14T06:06:21;1.95;;;1.85;;
37115;SDS011;23025;41.996;23.098;2023-03-14T06:08:48;2.55;;;2.33;;
37115;SDS011;23025;41.996;23.098;2023-03-14T06:11:16;2.25;;;2.08;;
37115;SDS011;23025;41.996;23.098;2023-03-14T06:13:42;1.65;;;1.55;;
37115;SDS011;23025;41.996;23.098;2023-03-14T06:16:09;0.98;;;0.70;;
37115;SDS011;23025;41.996;23.098;2023-03-14T06:18:35;1.80;;;1.70;;
37115;SDS011;23025;41.996;23.098;2023-03-14T06:21:02;1.20;;;1.17;;
37115;SDS011;23025;41.996;23.098;2023-03-14T06:23:28;1.50;;;1.27;;
37115;SDS011;23025;41.996;23.098;2023-03-14T06:25:55;2.88;;;2.15;;
37115;SDS011;23025;41.996;23.098;2023-03-14T06:28:23;1.17;;;1.13;;
37115;SDS011;23025;41.996;23.098;2023-03-14T06:30:50;2.05;;;1.95;;
37115;SDS011;23025;41.996;23.098;2023-03-14T06:33:16;1.80;;;1.70;;
37115;SDS011;23025;41.996;23.098;2023-03-14T06:35:43;1.90;;;1.80;;
37115;SDS011;23025;41.996;23.098;2023-03-14T06:38:10;2.33;;;2.22;;
37115;SDS011;23025;41.996;23.098;2023-03-14T06:40:36;2.97;;;2.83;;
37115;SDS011;23025;41.996;23.098;2023-03-14T06:43:03;3.45;;;3.22;;
37115;SDS011;23025;41.996;23.098;2023-03-14T06:45:30;2.75;;;2.65;;
37115;SDS011;23025;41.996;23.098;2023-03-14T06:47:57;2.53;;;2.42;;
37115;SDS011;23025;41.996;23.098;2023-03-14T06:50:23;4.45;;;3.20;;
37115;SDS011;23025;41.996;23.098;2023-03-14T06:52:50;2.80;;;2.35;;
37115;SDS011;23025;41.996;23.098;2023-03-14T06:55:17;3.17;;;2.92;;
37115;SDS011;23025;41.996;23.098;2023-03-14T06:57:43;2.33;;;2.13;;
37115;SDS011;23025;41.996;23.098;2023-03-14T07:00:10;3.47;;;2.67;;
37115;SDS011;23025;41.996;23.098;2023-03-14T07:02:39;2.45;;;2.28;;
37115;SDS011;23025;41.996;23.098;2023-03-14T07:05:06;2.38;;;2.28;;
37115;SDS011;23025;41.996;23.098;2023-03-14T07:07:32;2.75;;;2.55;;
37115;SDS011;23025;41.996;23.098;2023-03-14T07:09:59;2.65;;;2.55;;
37115;SDS011;23025;41.996;23.098;2023-03-14T07:12:25;3.78;;;2.78;;
37115;SDS011;23025;41.996;23.098;2023-03-14T07:14:52;2.78;;;2.58;;
37115;SDS011;23025;41.996;23.098;2023-03-14T07:17:18;2.83;;;2.63;;
37115;SDS011;23025;41.996;23.098;2023-03-14T07:19:46;6.70;;;3.95;;
37115;SDS011;23025;41.996;23.098;2023-03-14T07:22:13;3.45;;;3.22;;
37115;SDS011;23025;41.996;23.098;2023-03-14T07:24:39;2.90;;;2.70;;
37115;SDS011;23025;41.996;23.098;2023-03-14T07:27:06;2.88;;;2.08;;
37115;SDS011;23025;41.996;23.098;2023-03-14T07:29:32;3.75;;;3.55;;
37115;SDS011;23025;41.996;23.098;2023-03-14T07:31:59;3.80;;;3.58;;
37115;SDS011;23025;41.996;23.098;2023-03-14T07:34:25;1.58;;;1.42;;
37115;SDS011;23025;41.996;23.098;2023-03-14T07:36:53;2.78;;;2.45;;
37115;SDS011;23025;41.996;23.098;2023-03-14T07:39:19;2.60;;;2.40;;
37115;SDS011;23025;41.996;23.098;2023-03-14T07:41:46;5.53;;;5.22;;
37115;SDS011;23025;41.996;23.098;2023-03-14T07:44:12;2.53;;;2.33;;
37115;SDS011;23025;41.996;23.098;2023-03-14T07:46:39;5.35;;;3.95;;
37115;SDS011;23025;41.996;23.098;2023-03-14T07:49:05;4.70;;;4.50;;
37115;SDS011;23025;41.996;23.098;2023-03-14T07:51:32;4.90;;;4.68;;
37115;SDS011;23025;41.996;23.098;2023-03-14T07:54:00;2.83;;;2.72;;
37115;SDS011;23025;41.996;23.098;2023-03-14T07:56:26;5.22;;;4.65;;
37115;SDS011;23025;41.996;23.098;2023-03-14T07:58:52;4.00;;;3.67;;
37115;SDS011;23025;41.996;23.098;2023-03-14T08:01:19;4.82;;;4.25;;
37115;SDS011;23025;41.996;23.098;2023-03-14T08:03:45;4.88;;;4.05;;
37115;SDS011;23025;41.996;23.098;2023-03-14T08:06:12;4.97;;;4.57;;
37115;SDS011;23025;41.996;23.098;2023-03-14T08:08:38;6.20;;;5.47;;
37115;SDS011;23025;41.996;23.098;2023-03-14T08:11:07;6.10;;;5.70;;
37115;SDS011;23025;41.996;23.098;2023-03-14T08:13:34;6.90;;;6.30;;
37115;SDS011;23025;41.996;23.098;2023-03-14T08:16:01;5.78;;;5.30;;
37115;SDS011;23025;41.996;23.098;2023-03-14T08:18:27;4.80;;;4.50;;
37115;SDS011;23025;41.996;23.098;2023-03-14T08:20:54;6.32;;;5.93;;
37115;SDS011;23025;41.996;23.098;2023-03-14T08:23:20;4.70;;;4.38;;
37115;SDS011;23025;41.996;23.098;2023-03-14T08:25:48;4.13;;;3.83;;
37115;SDS011;23025;41.996;23.098;2023-03-14T08:28:16;4.90;;;4.50;;
37115;SDS011;23025;41.996;23.098;2023-03-14T08:30:42;4.45;;;4.22;;
37115;SDS011;23025;41.996;23.098;2023-03-14T08:33:09;3.47;;;2.95;;
37115;SDS011;23025;41.996;23.098;2023-03-14T08:35:37;6.65;;;5.15;;
37115;SDS011;23025;41.996;23.098;2023-03-14T08:38:03;4.35;;;4.05;;
37115;SDS011;23025;41.996;23.098;2023-03-14T08:40:30;6.20;;;5.82;;
37115;SDS011;23025;41.996;23.098;2023-03-14T08:42:56;5.05;;;4.75;;
37115;SDS011;23025;41.996;23.098;2023-03-14T08:45:24;4.40;;;4.18;;
37115;SDS011;23025;41.996;23.098;2023-03-14T08:47:50;4.63;;;3.85;;
37115;SDS011;23025;41.996;23.098;2023-03-14T08:50:17;5.68;;;5.28;;
37115;SDS011;23025;41.996;23.098;2023-03-14T08:52:44;6.75;;;5.80;;
37115;SDS011;23025;41.996;23.098;2023-03-14T08:55:10;4.45;;;4.15;;
37115;SDS011;23025;41.996;23.098;2023-03-14T08:57:37;4.28;;;3.97;;
37115;SDS011;23025;41.996;23.098;2023-03-14T09:02:55;5.18;;;4.70;;
37115;SDS011;23025;41.996;23.098;2023-03-14T09:05:22;4.10;;;3.80;;
37115;SDS011;23025;41.996;23.098;2023-03-14T09:07:48;4.13;;;3.90;;
37115;SDS011;23025;41.996;23.098;2023-03-14T09:10:15;4.28;;;4.07;;
37115;SDS011;23025;41.996;23.098;2023-03-14T09:12:42;5.00;;;4.70;;
37115;SDS011;23025;41.996;23.098;2023-03-14T09:15:08;5.72;;;5.30;;
37115;SDS011;23025;41.996;23.098;2023-03-14T09:17:35;4.38;;;4.00;;
37115;SDS011;23025;41.996;23.098;2023-03-14T09:20:03;7.03;;;6.65;;
37115;SDS011;23025;41.996;23.098;2023-03-14T09:22:32;3.83;;;3.63;;
37115;SDS011;23025;41.996;23.098;2023-03-14T09:25:00;4.97;;;4.78;;
37115;SDS011;23025;41.996;23.098;2023-03-14T09:27:27;3.13;;;2.90;;
37115;SDS011;23025;41.996;23.098;2023-03-14T09:29:53;4.72;;;4.47;;
37115;SDS011;23025;41.996;23.098;2023-03-14T09:32:20;5.57;;;5.25;;
37115;SDS011;23025;41.996;23.098;2023-03-14T09:34:46;4.03;;;3.83;;
37115;SDS011;23025;41.996;23.098;2023-03-14T09:37:14;4.28;;;4.07;;
37115;SDS011;23025;41.996;23.098;2023-03-14T09:39:42;4.20;;;3.97;;
37115;SDS011;23025;41.996;23.098;2023-03-14T09:42:10;4.22;;;3.90;;
37115;SDS011;23025;41.996;23.098;2023-03-14T09:44:41;4.50;;;4.28;;
37115;SDS011;23025;41.996;23.098;2023-03-14T09:47:09;5.20;;;4.88;;
37115;SDS011;23025;41.996;23.098;2023-03-14T09:49:39;3.40;;;3.20;;
37115;SDS011;23025;41.996;23.098;2023-03-14T09:52:06;4.15;;;3.95;;
37115;SDS011;23025;41.996;23.098;2023-03-14T09:54:38;4.95;;;4.18;;
37115;SDS011;23025;41.996;23.098;2023-03-14T09:57:09;4.68;;;4.38;;
37115;SDS011;23025;41.996;23.098;2023-03-14T09:59:37;2.70;;;2.53;;
37115;SDS011;23025;41.996;23.098;2023-03-14T10:02:11;4.30;;;4.10;;
37115;SDS011;23025;41.996;23.098;2023-03-14T10:04:38;4.03;;;3.83;;
37115;SDS011;23025;41.996;23.098;2023-03-14T10:09:35;4.38;;;4.18;;
37115;SDS011;23025;41.996;23.098;2023-03-14T10:12:04;5.63;;;5.40;;
37115;SDS011;23025;41.996;23.098;2023-03-14T10:14:33;2.45;;;2.30;;
37115;SDS011;23025;41.996;23.098;2023-03-14T10:17:07;5.03;;;4.80;;
37115;SDS011;23025;41.996;23.098;2023-03-14T10:19:34;3.78;;;3.58;;
37115;SDS011;23025;41.996;23.098;2023-03-14T10:22:02;4.38;;;4.15;;
37115;SDS011;23025;41.996;23.098;2023-03-14T10:24:29;7.03;;;6.60;;
37115;SDS011;23025;41.996;23.098;2023-03-14T10:26:57;5.05;;;4.85;;
37115;SDS011;23025;41.996;23.098;2023-03-14T10:29:28;6.78;;;6.47;;
37115;SDS011;23025;41.996;23.098;2023-03-14T10:31:56;4.93;;;4.70;;
37115;SDS011;23025;41.996;23.098;2023-03-14T10:34:24;5.05;;;4.85;;
37115;SDS011;23025;41.996;23.098;2023-03-14T10:36:55;4.28;;;3.97;;
37115;SDS011;23025;41.996;23.098;2023-03-14T10:39:23;5.32;;;5.10;;
37115;SDS011;23025;41.996;23.098;2023-03-14T10:41:52;5.18;;;4.95;;
37115;SDS011;23025;41.996;23.098;2023-03-14T10:44:20;3.88;;;3.65;;
37115;SDS011;23025;41.996;23.098;2023-03-14T10:46:54;4.10;;;3.88;;
37115;SDS011;23025;41.996;23.098;2023-03-14T10:49:25;4.95;;;4.72;;
37115;SDS011;23025;41.996;23.098;2023-03-14T10:51:53;4.85;;;4.55;;
37115;SDS011;23025;41.996;23.098;2023-03-14T10:54:19;6.10;;;5.70;;
37115;SDS011;23025;41.996;23.098;2023-03-14T10:56:50;6.25;;;5.97;;
37115;SDS011;23025;41.996;23.098;2023-03-14T10:59:21;7.40;;;7.00;;
37115;SDS011;23025;41.996;23.098;2023-03-14T11:01:50;9.15;;;8.75;;
37115;SDS011;23025;41.996;23.098;2023-03-14T11:04:24;7.65;;;7.15;;
37115;SDS011;23025;41.996;23.098;2023-03-14T11:06:58;9.45;;;8.95;;
37115;SDS011;23025;41.996;23.098;2023-03-14T11:09:29;8.88;;;8.48;;
37115;SDS011;23025;41.996;23.098;2023-03-14T11:14:26;8.15;;;7.85;;
37115;SDS011;23025;41.996;23.098;2023-03-14T11:16:56;6.43;;;6.03;;
37115;SDS011;23025;41.996;23.098;2023-03-14T11:19:31;6.47;;;6.10;;
37115;SDS011;23025;41.996;23.098;2023-03-14T11:21:59;6.53;;;6.22;;
37115;SDS011;23025;41.996;23.098;2023-03-14T11:24:31;7.15;;;6.82;;
37115;SDS011;23025;41.996;23.098;2023-03-14T11:26:59;6.72;;;6.40;;
37115;SDS011;23025;41.996;23.098;2023-03-14T11:29:31;6.60;;;6.28;;
37115;SDS011;23025;41.996;23.098;2023-03-14T11:31:59;6.85;;;6.53;;
37115;SDS011;23025;41.996;23.098;2023-03-14T11:34:27;9.20;;;8.77;;
37115;SDS011;23025;41.996;23.098;2023-03-14T11:36:58;6.45;;;6.13;;
37115;SDS011;23025;41.996;23.098;2023-03-14T11:39:26;9.25;;;8.85;;
37115;SDS011;23025;41.996;23.098;2023-03-14T11:41:54;7.80;;;7.40;;
37115;SDS011;23025;41.996;23.098;2023-03-14T11:44:24;6.45;;;6.15;;
37115;SDS011;23025;41.996;23.098;2023-03-14T11:46:54;6.20;;;5.90;;
37115;SDS011;23025;41.996;23.098;2023-03-14T11:49:25;5.82;;;5.43;;
37115;SDS011;23025;41.996;23.098;2023-03-14T11:54:22;5.47;;;5.25;;
37115;SDS011;23025;41.996;23.098;2023-03-14T11:56:52;5.75;;;5.38;;
37115;SDS011;23025;41.996;23.098;2023-03-14T11:59:21;7.70;;;6.30;;
37115;SDS011;23025;41.996;23.098;2023-03-14T12:01:52;8.05;;;7.72;;
37115;SDS011;23025;41.996;23.098;2023-03-14T12:04:21;7.18;;;6.65;;
37115;SDS011;23025;41.996;23.098;2023-03-14T12:06:49;6.25;;;6.03;;
37115;SDS011;23025;41.996;23.098;2023-03-14T12:09:15;7.70;;;7.20;;
37115;SDS011;23025;41.996;23.098;2023-03-14T12:11:45;7.20;;;6.82;;
37115;SDS011;23025;41.996;23.098;2023-03-14T12:14:20;4.70;;;4.47;;
37115;SDS011;23025;41.996;23.098;2023-03-14T12:16:47;6.03;;;5.72;;
37115;SDS011;23025;41.996;23.098;2023-03-14T12:22:06;4.75;;;4.45;;
37115;SDS011;23025;41.996;23.098;2023-03-14T12:24:34;5.68;;;5.35;;
37115;SDS011;23025;41.996;23.098;2023-03-14T12:27:03;5.53;;;5.25;;
37115;SDS011;23025;41.996;23.098;2023-03-14T12:29:30;5.53;;;5.18;;
37115;SDS011;23025;41.996;23.098;2023-03-14T12:32:06;10.05;;;9.63;;
37115;SDS011;23025;41.996;23.098;2023-03-14T12:34:33;6.00;;;5.78;;
37115;SDS011;23025;41.996;23.098;2023-03-14T12:37:10;7.13;;;6.72;;
37115;SDS011;23025;41.996;23.098;2023-03-14T12:39:43;7.60;;;7.30;;
37115;SDS011;23025;41.996;23.098;2023-03-14T12:42:13;7.63;;;7.30;;
37115;SDS011;23025;41.996;23.098;2023-03-14T12:44:42;4.80;;;4.57;;
37115;SDS011;23025;41.996;23.098;2023-03-14T12:50:13;5.95;;;5.70;;
37115;SDS011;23025;41.996;23.098;2023-03-14T12:52:41;4.90;;;4.70;;
37115;SDS011;23025;41.996;23.098;2023-03-14T12:55:12;5.90;;;5.65;;
37115;SDS011;23025;41.996;23.098;2023-03-14T12:57:43;10.15;;;9.63;;
37115;SDS011;23025;41.996;23.098;2023-03-14T13:02:38;6.05;;;5.80;;
37115;SDS011;23025;41.996;23.098;2023-03-14T13:05:09;14.05;;;13.55;;
37115;SDS011;23025;41.996;23.098;2023-03-14T13:10:05;6.78;;;6.38;;
37115;SDS011;23025;41.996;23.098;2023-03-14T13:12:44;7.53;;;7.15;;
37115;SDS011;23025;41.996;23.098;2023-03-14T13:15:20;8.05;;;6.50;;
37115;SDS011;23025;41.996;23.098;2023-03-14T13:17:48;7.00;;;6.70;;
37115;SDS011;23025;41.996;23.098;2023-03-14T13:20:16;3.47;;;3.25;;
37115;SDS011;23025;41.996;23.098;2023-03-14T13:22:45;6.93;;;6.63;;
37115;SDS011;23025;41.996;23.098;2023-03-14T13:25:12;10.27;;;9.77;;
37115;SDS011;23025;41.996;23.098;2023-03-14T13:27:39;8.38;;;7.97;;
37115;SDS011;23025;41.996;23.098;2023-03-14T13:30:20;10.27;;;9.75;;
37115;SDS011;23025;41.996;23.098;2023-03-14T13:32:47;3.60;;;3.42;;
37115;SDS011;23025;41.996;23.098;2023-03-14T13:35:15;7.93;;;7.60;;
37115;SDS011;23025;41.996;23.098;2023-03-14T13:37:42;8.68;;;8.27;;
37115;SDS011;23025;41.996;23.098;2023-03-14T13:40:17;6.72;;;6.43;;
37115;SDS011;23025;41.996;23.098;2023-03-14T13:42:44;10.13;;;9.55;;
37115;SDS011;23025;41.996;23.098;2023-03-14T13:45:12;7.60;;;7.28;;
37115;SDS011;23025;41.996;23.098;2023-03-14T13:47:40;8.30;;;7.72;;
37115;SDS011;23025;41.996;23.098;2023-03-14T13:50:12;4.88;;;4.65;;
37115;SDS011;23025;41.996;23.098;2023-03-14T13:52:39;7.20;;;6.90;;
37115;SDS011;23025;41.996;23.098;2023-03-14T13:55:13;8.80;;;8.40;;
37115;SDS011;23025;41.996;23.098;2023-03-14T13:57:44;9.23;;;8.82;;
37115;SDS011;23025;41.996;23.098;2023-03-14T14:00:17;6.75;;;6.43;;
37115;SDS011;23025;41.996;23.098;2023-03-14T14:02:45;8.70;;;8.30;;
37115;SDS011;23025;41.996;23.098;2023-03-14T14:05:12;7.93;;;7.53;;
37115;SDS011;23025;41.996;23.098;2023-03-14T14:07:40;6.57;;;6.25;;
37115;SDS011;23025;41.996;23.098;2023-03-14T14:10:08;9.63;;;9.20;;
37115;SDS011;23025;41.996;23.098;2023-03-14T14:12:36;7.97;;;7.47;;
37115;SDS011;23025;41.996;23.098;2023-03-14T14:15:05;7.82;;;7.28;;
37115;SDS011;23025;41.996;23.098;2023-03-14T14:17:36;10.07;;;9.68;;
37115;SDS011;23025;41.996;23.098;2023-03-14T14:20:06;6.68;;;6.30;;
37115;SDS011;23025;41.996;23.098;2023-03-14T14:22:33;7.18;;;6.78;;
37115;SDS011;23025;41.996;23.098;2023-03-14T14:25:00;6.35;;;5.97;;
37115;SDS011;23025;41.996;23.098;2023-03-14T14:27:28;7.60;;;7.20;;
37115;SDS011;23025;41.996;23.098;2023-03-14T14:29:57;6.72;;;6.43;;
37115;SDS011;23025;41.996;23.098;2023-03-14T14:32:24;7.40;;;7.10;;
37115;SDS011;23025;41.996;23.098;2023-03-14T14:34:56;8.05;;;7.65;;
37115;SDS011;23025;41.996;23.098;2023-03-14T14:37:25;8.07;;;7.57;;
37115;SDS011;23025;41.996;23.098;2023-03-14T14:39:52;5.88;;;5.65;;
37115;SDS011;23025;41.996;23.098;2023-03-14T14:42:19;7.43;;;6.97;;
37115;SDS011;23025;41.996;23.098;2023-03-14T14:44:47;6.13;;;5.80;;
37115;SDS011;23025;41.996;23.098;2023-03-14T14:47:17;7.80;;;7.40;;
37115;SDS011;23025;41.996;23.098;2023-03-14T14:49:44;6.28;;;5.95;;
37115;SDS011;23025;41.996;23.098;2023-03-14T14:52:14;7.75;;;7.43;;
37115;SDS011;23025;41.996;23.098;2023-03-14T14:54:44;6.22;;;5.93;;
37115;SDS011;23025;41.996;23.098;2023-03-14T14:57:17;4.93;;;4.65;;